createdAt,value
2019-04-20T00:00:01.667Z,33.50
2019-04-20T00:02:31.588Z,33.21
2019-04-20T00:05:01.405Z,33.04
2019-04-20T00:07:35.626Z,33.36
2019-04-20T00:10:10.965Z,33.61
2019-04-20T00:12:53.590Z,34.01
2019-04-20T00:15:09.202Z,33.86
2019-04-20T00:17:47.699Z,34.03
2019-04-20T00:20:16.010Z,33.83
2019-04-20T00:22:59.749Z,33.62
2019-04-20T00:25:54.399Z,34.12
2019-04-20T00:28:38.271Z,34.21
2019-04-20T00:31:05.554Z,34.12
2019-04-20T00:33:32.388Z,34.11
2019-04-20T00:35:51.232Z,34.34
2019-04-20T00:38:21.642Z,34.34
2019-04-20T00:40:59.417Z,34.38
2019-04-20T00:43:28.297Z,34.51
2019-04-20T00:46:04.838Z,34.60
2019-04-20T00:48:37.457Z,34.58
2019-04-20T00:51:17.359Z,34.38
2019-04-20T00:53:33.361Z,34.46
2019-04-20T00:56:03.423Z,34.76
2019-04-20T00:58:46.664Z,34.69
2019-04-20T01:01:25.098Z,34.57
2019-04-20T01:03:49.675Z,34.58
2019-04-20T01:06:28.925Z,34.83
2019-04-20T01:08:40.285Z,34.89
2019-04-20T01:11:10.279Z,34.68
2019-04-20T01:13:45.931Z,34.79
2019-04-20T01:16:25.302Z,34.83
2019-04-20T01:18:43.707Z,34.74
2019-04-20T01:21:18.638Z,34.96
2019-04-20T01:23:52.545Z,34.74
2019-04-20T01:26:19.699Z,34.99
2019-04-20T01:29:02.929Z,34.87
2019-04-20T01:31:30.482Z,34.75
2019-04-20T01:33:58.752Z,35.30
2019-04-20T01:36:43.145Z,35.05
2019-04-20T01:39:05.497Z,35.01
2019-04-20T01:41:24.495Z,34.74
2019-04-20T01:43:54.392Z,34.97
2019-04-20T01:46:27.197Z,34.90
2019-04-20T01:48:59.969Z,35.08
2019-04-20T01:51:33.689Z,34.82
2019-04-20T01:54:17.734Z,34.83
2019-04-20T01:56:44.655Z,34.90
2019-04-20T01:59:21.187Z,35.26
2019-04-20T02:02:01.773Z,35.15
2019-04-20T02:04:34.397Z,34.94
2019-04-20T02:07:03.020Z,35.16
2019-04-20T02:09:32.710Z,34.83
2019-04-20T02:12:10.327Z,34.70
2019-04-20T02:14:41.011Z,34.96
2019-04-20T02:17:18.501Z,35.06
2019-04-20T02:19:57.342Z,34.88
2019-04-20T02:22:27.789Z,34.91
2019-04-20T02:24:40.499Z,35.05
2019-04-20T02:27:10.403Z,34.86
2019-04-20T02:30:07.646Z,34.85
2019-04-20T02:32:53.243Z,35.00
2019-04-20T02:35:18.450Z,34.97
2019-04-20T02:38:03.536Z,35.09
2019-04-20T02:40:32.841Z,34.84
2019-04-20T02:42:57.991Z,34.72
2019-04-20T02:45:38.806Z,34.87
2019-04-20T02:50:40.089Z,34.79
2019-04-20T02:53:13.229Z,34.72
2019-04-20T02:55:33.925Z,34.83
2019-04-20T02:58:07.708Z,35.00
2019-04-20T03:00:35.584Z,34.94
2019-04-20T03:05:42.405Z,35.75
2019-04-20T03:08:22.136Z,35.78
2019-04-20T03:11:01.314Z,36.91
2019-04-20T03:13:26.968Z,37.15
2019-04-20T03:15:55.986Z,37.51
2019-04-20T03:18:26.586Z,37.59
2019-04-20T03:21:00.795Z,36.99
2019-04-20T03:23:35.339Z,37.30
2019-04-20T03:26:06.389Z,36.86
2019-04-20T03:28:51.548Z,36.67
2019-04-20T03:32:10.501Z,36.66
2019-04-20T03:34:41.366Z,36.32
2019-04-20T03:36:45.317Z,36.20
2019-04-20T03:39:07.022Z,36.53
2019-04-20T03:41:26.214Z,36.71
2019-04-20T03:43:55.109Z,36.94
2019-04-20T03:46:30.944Z,36.80
2019-04-20T03:49:09.472Z,37.18
2019-04-20T03:51:51.783Z,37.56
2019-04-20T03:54:29.809Z,37.81
2019-04-20T03:57:17.124Z,37.16
2019-04-20T03:59:56.263Z,36.75
2019-04-20T04:05:08.693Z,37.25
2019-04-20T04:07:32.368Z,37.22
2019-04-20T04:10:14.157Z,37.47
2019-04-20T04:13:09.527Z,38.30
2019-04-20T04:15:44.261Z,38.65
2019-04-20T04:18:21.880Z,39.87
2019-04-20T04:20:54.109Z,42.20
2019-04-20T04:23:38.072Z,42.04
2019-04-20T04:26:12.949Z,42.62
2019-04-20T04:28:37.301Z,42.23
2019-04-20T04:31:12.002Z,42.14
2019-04-20T04:36:10.442Z,42.29
2019-04-20T04:38:47.555Z,42.03
2019-04-20T04:43:44.126Z,41.57
2019-04-20T04:46:01.709Z,41.34
2019-04-20T04:48:35.550Z,41.24
2019-04-20T04:51:08.982Z,41.23
2019-04-20T04:53:44.371Z,40.82
2019-04-20T04:56:11.060Z,40.73
2019-04-20T04:58:36.877Z,40.42
2019-04-20T05:01:11.741Z,40.52
2019-04-20T05:04:02.847Z,40.42
2019-04-20T05:06:26.467Z,40.46
2019-04-20T05:08:48.917Z,40.19
2019-04-20T05:11:13.299Z,39.09
2019-04-20T05:13:50.559Z,39.08
2019-04-20T05:16:37.298Z,39.67
2019-04-20T05:19:11.909Z,40.05
2019-04-20T05:21:41.192Z,39.92
2019-04-20T05:24:25.593Z,39.94
2019-04-20T05:27:07.273Z,39.90
2019-04-20T05:29:23.643Z,40.63
2019-04-20T05:31:51.851Z,40.62
2019-04-20T05:34:38.780Z,39.96
2019-04-20T05:37:17.337Z,39.90
2019-04-20T05:39:44.459Z,39.84
2019-04-20T05:42:22.137Z,39.91
2019-04-20T05:44:45.823Z,40.36
2019-04-20T05:47:19.933Z,40.27
2019-04-20T05:49:48.424Z,39.87
2019-04-20T05:52:31.721Z,40.13
2019-04-20T05:54:53.059Z,40.28
2019-04-20T05:57:25.203Z,41.06
2019-04-20T06:00:02.201Z,41.19
2019-04-20T06:02:27.687Z,40.13
2019-04-20T06:07:29.637Z,39.65
2019-04-20T06:10:00.276Z,40.05
2019-04-20T06:12:31.856Z,39.51
2019-04-20T06:14:57.194Z,40.03
2019-04-20T06:17:52.939Z,38.72
2019-04-20T06:20:26.963Z,39.78
2019-04-20T06:23:09.493Z,39.91
2019-04-20T06:28:02.404Z,38.79
2019-04-20T06:30:32.180Z,38.60
2019-04-20T06:34:14.745Z,37.53
2019-04-20T06:36:29.312Z,37.83
2019-04-20T06:39:02.283Z,37.30
2019-04-20T06:41:43.479Z,37.05
2019-04-20T06:44:03.740Z,37.26
2019-04-20T06:46:29.181Z,36.96
2019-04-20T06:49:11.869Z,36.76
2019-04-20T06:51:53.178Z,36.21
2019-04-20T06:54:35.856Z,35.81
2019-04-20T06:57:07.214Z,35.92
2019-04-20T06:59:42.975Z,35.33
2019-04-20T07:02:18.684Z,35.32
2019-04-20T07:04:48.601Z,35.20
2019-04-20T07:07:14.133Z,34.91
2019-04-20T07:09:58.248Z,34.96
2019-04-20T07:12:12.525Z,34.75
2019-04-20T07:14:39.657Z,34.78
2019-04-20T07:17:32.945Z,34.33
2019-04-20T07:19:53.125Z,34.26
2019-04-20T07:23:11.531Z,33.95
2019-04-20T07:25:23.150Z,34.14
2019-04-20T07:27:49.317Z,33.09
2019-04-20T07:30:19.601Z,33.36
2019-04-20T07:35:25.028Z,33.25
2019-04-20T07:40:26.924Z,33.50
2019-04-20T07:42:58.980Z,32.10
2019-04-20T07:45:33.456Z,32.54
2019-04-20T07:48:06.145Z,31.35
2019-04-20T07:50:26.289Z,31.47
2019-04-20T07:52:58.629Z,31.87
2019-04-20T07:58:02.541Z,31.21
2019-04-20T08:00:53.252Z,30.93
2019-04-20T08:03:33.574Z,31.14
2019-04-20T08:05:55.303Z,30.94
2019-04-20T08:08:28.248Z,31.15
2019-04-20T08:11:10.304Z,30.83
2019-04-20T08:13:49.030Z,29.92
2019-04-20T08:16:20.472Z,29.73
2019-04-20T08:18:46.976Z,29.38
2019-04-20T08:21:20.896Z,29.46
2019-04-20T08:23:44.649Z,29.76
2019-04-20T08:26:05.493Z,29.13
2019-04-20T08:28:39.438Z,29.21
2019-04-20T08:31:21.895Z,29.03
2019-04-20T08:34:21.406Z,29.18
2019-04-20T08:36:43.135Z,28.95
2019-04-20T08:39:23.217Z,28.99
2019-04-20T08:41:45.289Z,28.65
2019-04-20T08:44:38.167Z,28.03
2019-04-20T08:46:54.806Z,28.34
2019-04-20T08:49:25.167Z,28.26
2019-04-20T08:51:55.631Z,28.79
2019-04-20T08:54:17.624Z,28.44
2019-04-20T08:56:39.325Z,28.50
2019-04-20T08:59:02.333Z,28.44
2019-04-20T09:01:35.835Z,28.10
2019-04-20T09:04:12.650Z,28.17
2019-04-20T09:06:49.553Z,27.96
2019-04-20T09:09:38.028Z,27.46
2019-04-20T09:12:18.002Z,27.67
2019-04-20T09:14:18.660Z,27.41
2019-04-20T09:16:59.280Z,28.00
2019-04-20T09:19:41.660Z,27.64
2019-04-20T09:22:24.285Z,28.16
2019-04-20T09:25:13.249Z,27.51
2019-04-20T09:27:26.858Z,27.65
2019-04-20T09:30:05.789Z,28.03
2019-04-20T09:32:36.106Z,27.91
2019-04-20T09:35:16.328Z,27.06
2019-04-20T09:37:45.916Z,27.08
2019-04-20T09:40:40.509Z,26.49
2019-04-20T09:42:48.459Z,25.98
2019-04-20T09:45:27.767Z,26.05
2019-04-20T09:47:54.467Z,26.04
2019-04-20T09:50:37.660Z,25.50
2019-04-20T09:53:09.006Z,25.65
2019-04-20T09:55:38.273Z,25.23
2019-04-20T09:58:10.056Z,24.61
2019-04-20T10:00:48.643Z,24.92
2019-04-20T10:03:04.400Z,24.28
2019-04-20T10:05:33.970Z,24.07
2019-04-20T10:08:07.960Z,22.58
2019-04-20T10:10:40.539Z,23.59
2019-04-20T10:13:07.357Z,23.01
2019-04-20T10:15:37.599Z,23.10
2019-04-20T10:18:07.898Z,23.20
2019-04-20T10:20:38.898Z,22.80
2019-04-20T10:23:08.946Z,21.62
2019-04-20T10:25:38.544Z,22.28
2019-04-20T10:28:09.233Z,22.14
2019-04-20T10:30:39.136Z,21.30
2019-04-20T10:33:09.890Z,21.06
2019-04-20T10:35:39.552Z,20.51
2019-04-20T10:38:13.790Z,20.39
2019-04-20T10:40:55.880Z,20.78
2019-04-20T10:43:14.706Z,20.92
2019-04-20T10:45:44.840Z,20.67
2019-04-20T10:48:15.119Z,20.44
2019-04-20T10:50:45.091Z,20.37
2019-04-20T10:53:14.875Z,20.27
2019-04-20T10:55:45.255Z,18.60
2019-04-20T10:58:15.588Z,18.79
2019-04-20T11:00:46.977Z,18.92
2019-04-20T11:03:17.820Z,18.81
2019-04-20T11:05:48.923Z,19.33
2019-04-20T11:08:18.619Z,18.37
2019-04-20T11:11:00.293Z,18.38
2019-04-20T11:13:19.459Z,18.39
2019-04-20T11:15:50.438Z,18.66
2019-04-20T11:18:20.140Z,18.60
2019-04-20T11:20:51.034Z,18.44
2019-04-20T11:23:20.761Z,18.18
2019-04-20T11:25:50.589Z,19.08
2019-04-20T11:28:20.176Z,18.28
2019-04-20T11:30:50.138Z,18.87
2019-04-20T11:33:20.346Z,18.28
2019-04-20T11:35:51.474Z,18.25
2019-04-20T11:38:22.007Z,17.95
2019-04-20T11:41:04.081Z,18.17
2019-04-20T11:43:23.945Z,17.76
2019-04-20T11:45:54.511Z,17.35
2019-04-20T11:48:25.448Z,17.39
2019-04-20T11:50:55.833Z,17.46
2019-04-20T11:53:26.885Z,17.59
2019-04-20T11:55:58.365Z,17.00
2019-04-20T11:58:28.153Z,16.74
2019-04-20T12:01:08.053Z,16.83
2019-04-20T12:03:41.511Z,16.89
2019-04-20T12:06:05.369Z,17.29
2019-04-20T12:08:37.666Z,16.91
2019-04-20T12:11:22.781Z,17.56
2019-04-20T12:13:40.595Z,16.70
2019-04-20T12:16:10.281Z,16.95
2019-04-20T12:18:39.839Z,16.82
2019-04-20T12:21:10.616Z,16.63
2019-04-20T12:23:40.400Z,16.70
2019-04-20T12:26:10.845Z,16.21
2019-04-20T12:28:40.442Z,15.88
2019-04-20T12:31:14.729Z,14.81
2019-04-20T12:33:42.264Z,15.66
2019-04-20T12:36:12.325Z,15.02
2019-04-20T12:38:43.370Z,15.57
2019-04-20T12:41:14.487Z,15.51
2019-04-20T12:43:45.581Z,15.84
2019-04-20T12:46:18.293Z,15.59
2019-04-20T12:48:47.467Z,15.54
2019-04-20T12:51:17.536Z,14.78
2019-04-20T12:53:48.464Z,14.36
2019-04-20T12:56:18.321Z,14.79
2019-04-20T12:58:49.416Z,14.55
2019-04-20T13:01:21.076Z,15.07
2019-04-20T13:03:50.352Z,15.29
2019-04-20T13:06:19.981Z,14.58
2019-04-20T13:08:53.793Z,14.30
2019-04-20T13:11:23.079Z,14.19
2019-04-20T13:14:08.339Z,13.88
2019-04-20T13:16:38.850Z,13.96
2019-04-20T13:19:08.942Z,13.86
2019-04-20T13:21:39.044Z,13.60
2019-04-20T13:24:09.293Z,12.97
2019-04-20T13:26:39.054Z,13.00
2019-04-20T13:29:08.851Z,12.89
2019-04-20T13:31:38.376Z,12.72
2019-04-20T13:34:08.018Z,11.88
2019-04-20T13:36:38.119Z,12.07
2019-04-20T13:39:08.456Z,12.37
2019-04-20T13:41:39.983Z,11.97
2019-04-20T13:44:09.719Z,12.01
2019-04-20T13:46:39.353Z,12.31
2019-04-20T13:49:09.396Z,11.93
2019-04-20T13:51:39.226Z,11.93
2019-04-20T13:54:14.999Z,11.71
2019-04-20T13:56:42.015Z,9.14
2019-04-20T13:59:25.821Z,7.04
2019-04-20T14:02:10.595Z,5.47
2019-04-20T14:04:54.965Z,4.04
2019-04-20T14:07:25.541Z,3.91
2019-04-20T14:09:55.407Z,3.63
2019-04-20T14:12:32.425Z,3.16
2019-04-20T14:14:57.305Z,3.16
2019-04-20T14:17:26.917Z,2.66
2019-04-20T14:19:57.125Z,2.12
2019-04-20T14:22:27.240Z,1.90
2019-04-20T14:24:57.335Z,2.38
2019-04-20T14:27:28.897Z,2.68
2019-04-20T14:29:59.223Z,2.18
2019-04-20T14:32:29.172Z,1.66
2019-04-20T14:34:58.868Z,1.71
2019-04-20T14:37:30.945Z,1.98
2019-04-20T14:40:00.595Z,1.49
2019-04-20T14:42:39.465Z,1.44
2019-04-20T14:45:01.899Z,1.54
2019-04-20T14:47:33.894Z,2.03
2019-04-20T14:50:05.404Z,1.68
2019-04-20T14:52:35.489Z,0.95
2019-04-20T14:55:07.832Z,1.29
2019-04-20T14:57:37.511Z,1.45
2019-04-20T15:00:27.827Z,1.18
2019-04-20T15:02:59.500Z,1.37
2019-04-20T15:05:29.237Z,1.69
2019-04-20T15:08:00.640Z,1.63
2019-04-20T15:10:31.098Z,1.38
2019-04-20T15:13:04.284Z,1.24
2019-04-20T15:15:32.564Z,0.95
2019-04-20T15:18:06.788Z,0.60
2019-04-20T15:20:39.451Z,1.05
2019-04-20T15:23:13.452Z,1.01
2019-04-20T15:25:44.379Z,0.78
2019-04-20T15:28:14.585Z,1.30
2019-04-20T15:30:44.501Z,0.95
2019-04-20T15:33:14.900Z,0.78
2019-04-20T15:35:44.551Z,0.97
2019-04-20T15:38:15.284Z,0.72
2019-04-20T15:40:44.967Z,0.69
2019-04-20T15:43:20.317Z,1.17
2019-04-20T15:45:47.416Z,0.97
2019-04-20T15:48:17.147Z,1.40
2019-04-20T15:50:47.811Z,1.02
2019-04-20T15:53:17.638Z,1.25
2019-04-20T15:55:49.215Z,1.14
2019-04-20T15:58:18.552Z,1.77
2019-04-20T16:00:48.126Z,1.95
2019-04-20T16:03:35.125Z,2.63
2019-04-20T16:06:11.461Z,4.05
2019-04-20T16:08:42.355Z,5.22
2019-04-20T16:11:13.307Z,6.09
2019-04-20T16:13:46.296Z,6.86
2019-04-20T16:16:14.384Z,7.49
2019-04-20T16:18:46.303Z,7.85
2019-04-20T16:21:20.928Z,8.33
2019-04-20T16:23:50.706Z,8.69
2019-04-20T16:26:22.060Z,8.84
2019-04-20T16:28:53.472Z,9.43
2019-04-20T16:31:24.554Z,9.59
2019-04-20T16:33:56.945Z,9.80
2019-04-20T16:36:26.174Z,10.15
2019-04-20T16:38:55.793Z,10.28
2019-04-20T16:41:26.438Z,10.45
2019-04-20T16:43:57.410Z,10.53
2019-04-20T16:46:28.080Z,10.52
2019-04-20T16:48:58.987Z,10.86
2019-04-20T16:51:29.158Z,11.10
2019-04-20T16:53:59.537Z,11.32
2019-04-20T16:56:29.210Z,11.33
2019-04-20T16:59:05.760Z,11.75
2019-04-20T17:01:30.087Z,11.77
2019-04-20T17:04:06.980Z,12.04
2019-04-20T17:06:32.029Z,12.12
2019-04-20T17:09:02.892Z,12.33
2019-04-20T17:11:33.968Z,12.46
2019-04-20T17:14:03.851Z,12.51
2019-04-20T17:16:35.581Z,12.70
2019-04-20T17:19:05.908Z,13.03
2019-04-20T17:21:37.252Z,13.08
2019-04-20T17:24:07.363Z,13.08
2019-04-20T17:26:38.966Z,13.76
2019-04-20T17:29:10.692Z,14.19
2019-04-20T17:31:43.033Z,13.98
2019-04-20T17:34:31.522Z,14.11
2019-04-20T17:36:44.503Z,14.35
2019-04-20T17:39:25.824Z,14.45
2019-04-20T17:42:03.451Z,14.50
2019-04-20T17:44:34.512Z,14.69
2019-04-20T17:47:00.435Z,14.86
2019-04-20T17:49:34.164Z,15.10
2019-04-20T17:52:17.648Z,15.43
2019-04-20T17:54:29.390Z,16.05
2019-04-20T17:57:00.279Z,15.76
2019-04-20T17:59:30.390Z,16.33
2019-04-20T18:02:36.751Z,16.30
2019-04-20T18:05:20.416Z,16.51
2019-04-20T18:07:44.904Z,16.75
2019-04-20T18:10:17.414Z,17.07
2019-04-20T18:12:37.500Z,16.91
2019-04-20T18:15:23.111Z,17.24
2019-04-20T18:17:56.233Z,17.14
2019-04-20T18:20:10.039Z,17.37
2019-04-20T18:22:44.078Z,17.50
2019-04-20T18:25:31.354Z,17.84
2019-04-20T18:28:01.184Z,17.84
2019-04-20T18:30:40.688Z,18.21
2019-04-20T18:33:00.947Z,18.52
2019-04-20T18:35:34.779Z,18.45
2019-04-20T18:38:07.681Z,18.45
2019-04-20T18:40:41.761Z,18.88
2019-04-20T18:43:11.125Z,19.02
2019-04-20T18:45:58.204Z,19.01
2019-04-20T18:48:33.976Z,19.52
2019-04-20T18:50:42.219Z,19.66
2019-04-20T18:53:18.648Z,19.93
2019-04-20T18:55:49.587Z,19.90
2019-04-20T18:58:15.170Z,20.72
2019-04-20T19:00:51.150Z,20.33
2019-04-20T19:03:25.249Z,21.22
2019-04-20T19:05:49.538Z,22.12
2019-04-20T19:08:32.374Z,25.90
2019-04-20T19:10:57.546Z,24.81
2019-04-20T19:13:36.275Z,24.44
2019-04-20T19:16:15.289Z,23.16
2019-04-20T19:18:50.643Z,23.41
2019-04-20T19:21:09.155Z,23.11
2019-04-20T19:23:48.559Z,23.16
2019-04-20T19:26:16.139Z,23.10
2019-04-20T19:28:48.126Z,23.23
2019-04-20T19:31:30.778Z,23.81
2019-04-20T19:34:06.214Z,23.84
2019-04-20T19:36:28.105Z,23.79
2019-04-20T19:39:01.488Z,23.76
2019-04-20T19:41:34.052Z,23.72
2019-04-20T19:44:06.430Z,24.16
2019-04-20T19:46:53.623Z,24.08
2019-04-20T19:49:01.323Z,24.70
2019-04-20T19:51:49.341Z,24.41
2019-04-20T19:54:22.706Z,24.78
2019-04-20T19:56:42.618Z,24.72
2019-04-20T19:59:14.288Z,25.29
2019-04-20T20:01:29.490Z,25.31
2019-04-20T20:04:04.242Z,25.41
2019-04-20T20:06:40.709Z,25.52
2019-04-20T20:09:06.798Z,25.88
2019-04-20T20:11:38.485Z,25.88
2019-04-20T20:14:08.232Z,26.30
2019-04-20T20:16:57.483Z,26.88
2019-04-20T20:19:14.209Z,26.52
2019-04-20T20:21:55.483Z,26.77
2019-04-20T20:24:13.966Z,26.97
2019-04-20T20:26:50.009Z,26.62
2019-04-20T20:29:22.828Z,26.73
2019-04-20T20:32:03.355Z,26.64
2019-04-20T20:34:26.684Z,26.89
2019-04-20T20:36:54.615Z,27.08
2019-04-20T20:39:24.235Z,27.11
2019-04-20T20:42:01.584Z,27.31
2019-04-20T20:44:32.442Z,27.65
2019-04-20T20:47:03.455Z,27.49
2019-04-20T20:49:49.735Z,27.43
2019-04-20T20:52:12.334Z,27.39
2019-04-20T20:54:40.492Z,27.74
2019-04-20T20:57:05.667Z,27.71
2019-04-20T20:59:41.536Z,27.92
2019-04-20T21:02:08.828Z,27.78
2019-04-20T21:04:33.353Z,28.18
2019-04-20T21:07:03.030Z,28.02
2019-04-20T21:09:33.458Z,27.89
2019-04-20T21:12:08.458Z,28.12
2019-04-20T21:14:38.351Z,28.47
2019-04-20T21:17:13.164Z,28.36
2019-04-20T21:19:53.385Z,28.38
2019-04-20T21:22:18.499Z,28.57
2019-04-20T21:24:47.077Z,28.78
2019-04-20T21:27:19.818Z,28.94
2019-04-20T21:29:51.464Z,28.77
2019-04-20T21:32:21.204Z,29.10
2019-04-20T21:34:55.609Z,29.19
2019-04-20T21:37:24.922Z,29.31
2019-04-20T21:39:59.045Z,29.33
2019-04-20T21:42:26.703Z,29.40
2019-04-20T21:45:05.698Z,29.33
2019-04-20T21:47:31.431Z,29.68
2019-04-20T21:50:17.139Z,29.78
2019-04-20T21:52:39.243Z,29.81
2019-04-20T21:55:01.424Z,29.70
2019-04-20T21:57:42.077Z,30.00
2019-04-20T22:00:19.422Z,29.89
2019-04-20T22:02:48.419Z,30.00
2019-04-20T22:05:13.575Z,29.90
2019-04-20T22:07:44.267Z,29.85
2019-04-20T22:10:19.020Z,29.88
2019-04-20T22:12:53.559Z,29.78
2019-04-20T22:15:24.724Z,30.08
2019-04-20T22:17:48.585Z,30.12
2019-04-20T22:20:28.791Z,30.17
2019-04-20T22:23:03.014Z,30.22
2019-04-20T22:25:39.154Z,30.37
2019-04-20T22:27:52.084Z,30.21
2019-04-20T22:30:22.090Z,30.39
2019-04-20T22:32:55.295Z,30.46
2019-04-20T22:35:26.053Z,30.43
2019-04-20T22:38:07.007Z,30.62
2019-04-20T22:40:36.426Z,30.79
2019-04-20T22:43:06.414Z,30.82
2019-04-20T22:45:39.732Z,30.62
2019-04-20T22:48:11.034Z,30.48
2019-04-20T22:50:51.316Z,30.52
2019-04-20T22:53:26.096Z,30.48
2019-04-20T22:56:04.521Z,30.56
2019-04-20T22:58:27.435Z,30.27
2019-04-20T23:00:51.946Z,30.21
2019-04-20T23:03:16.815Z,30.07
2019-04-20T23:05:46.964Z,30.26
2019-04-20T23:08:17.013Z,30.03
2019-04-20T23:10:48.129Z,30.01
2019-04-20T23:13:22.089Z,30.09
2019-04-20T23:15:55.394Z,29.99
2019-04-20T23:18:22.319Z,29.97
2019-04-20T23:20:54.564Z,29.97
2019-04-20T23:23:27.010Z,30.14
2019-04-20T23:25:54.649Z,30.92
2019-04-20T23:28:24.518Z,31.29
2019-04-20T23:31:02.499Z,31.55
2019-04-20T23:33:27.638Z,31.68
2019-04-20T23:35:59.865Z,31.51
2019-04-20T23:38:28.696Z,31.83
2019-04-20T23:40:59.550Z,32.35
2019-04-20T23:43:37.570Z,32.56
2019-04-20T23:46:26.454Z,33.01
2019-04-20T23:48:56.572Z,32.97
2019-04-20T23:51:54.180Z,33.72
2019-04-20T23:54:07.804Z,34.04
2019-04-20T23:56:29.937Z,34.23
2019-04-20T23:58:59.884Z,34.24
